This is the latest recevied weather packets stored in our database for station/object HR1LRC-21. If no packets are shown the sender has not sent any weather packets the latest 10 day(s).
| Time | Temp. | Humidity | Pressure | Rain* | Wind** | Luminosity | Snow |
|---|---|---|---|---|---|---|---|
| 1777999069 | 24.44° C | 41% | 1013 hPa | 0 mm | - | - | - |
| 1777998469 | 23.33° C | 49% | 1014 hPa | 0 mm | - | - | - |
| 1777997868 | 22.78° C | 48% | 1014 hPa | 0 mm | - | - | - |
| 1777997267 | 22.78° C | 48% | 1014 hPa | 0 mm | - | - | - |
| 1777996667 | 22.78° C | 47% | 1014 hPa | 0 mm | - | - | - |
| 1777996066 | 22.78° C | 47% | 1014 hPa | 0 mm | - | - | - |
| 1777995466 | 22.22° C | 56% | 1014 hPa | 0 mm | - | - | - |
| 1777994865 | 22.22° C | 56% | 1015 hPa | 0 mm | - | - | - |
| 1777994264 | 22.22° C | 56% | 1015 hPa | 0 mm | - | - | - |
| 1777993664 | 21.67° C | 56% | 1015 hPa | 0 mm | - | - | - |
| 1777993063 | 21.67° C | 56% | 1015 hPa | 0 mm | - | - | - |
| 1777992463 | 19.44° C | 66% | 1015 hPa | 0 mm | - | - | - |
| 1777991862 | 19.44° C | 66% | 1015 hPa | 0 mm | - | - | - |
| 1777991261 | 19.44° C | 66% | 1015 hPa | 0 mm | - | - | - |
| 1777990661 | 19.44° C | 66% | 1015 hPa | 0 mm | - | - | - |
| 1777990060 | 19.44° C | 66% | 1015 hPa | 0 mm | - | - | - |
| 1777989460 | 18.89° C | 66% | 1015 hPa | 0 mm | - | - | - |
| 1777988859 | 18.89° C | 66% | 1015 hPa | 0 mm | - | - | - |
| 1777988259 | 17.78° C | 71% | 1015 hPa | 0 mm | - | - | - |
| 1777987658 | 17.78° C | 71% | 1015 hPa | 0 mm | - | - | - |
| 1777987057 | 17.78° C | 71% | 1015 hPa | 0 mm | - | - | - |
| 1777986457 | 17.78° C | 71% | 1015 hPa | 0 mm | - | - | - |
| 1777985856 | 17.78° C | 71% | 1014 hPa | 0 mm | - | - | - |
| 1777985255 | 17.78° C | 71% | 1014 hPa | 0 mm | - | - | - |
| 1777984655 | 17.78° C | 71% | 1014 hPa | 0 mm | - | - | - |
* Rain latest hour (hover to see other rain measurements)
** Current wind speed in m/s (hover to see current wind gust speed)